sensor_id;sensor_type;location;lat;lon;timestamp;pressure;altitude;pressure_sealevel;temperature;humidity
69689;BME280;56932;38.402;-96.176;2022-08-19T00:02:01;97386.76;;;23.71;25.35
69689;BME280;56932;38.402;-96.176;2022-08-19T00:04:29;97386.10;;;22.65;26.12
69689;BME280;56932;38.402;-96.176;2022-08-19T00:06:52;97381.74;;;22.65;25.98
69689;BME280;56932;38.402;-96.176;2022-08-19T00:09:19;97380.49;;;22.36;26.16
69689;BME280;56932;38.402;-96.176;2022-08-19T00:11:43;97381.74;;;23.07;25.38
69689;BME280;56932;38.402;-96.176;2022-08-19T00:14:10;97382.60;;;22.87;25.46
69689;BME280;56932;38.402;-96.176;2022-08-19T00:16:33;97385.74;;;22.91;25.25
69689;BME280;56932;38.402;-96.176;2022-08-19T00:18:59;97385.16;;;22.89;24.96
69689;BME280;56932;38.402;-96.176;2022-08-19T00:21:26;97389.22;;;23.19;24.82
69689;BME280;56932;38.402;-96.176;2022-08-19T00:23:50;97389.00;;;23.67;24.33
69689;BME280;56932;38.402;-96.176;2022-08-19T00:26:15;97386.35;;;22.93;24.90
69689;BME280;56932;38.402;-96.176;2022-08-19T00:28:41;97391.35;;;23.51;23.97
69689;BME280;56932;38.402;-96.176;2022-08-19T00:31:08;97385.94;;;23.30;24.42
69689;BME280;56932;38.402;-96.176;2022-08-19T00:33:33;97383.89;;;23.80;23.83
69689;BME280;56932;38.402;-96.176;2022-08-19T00:35:58;97379.55;;;23.55;23.99
69689;BME280;56932;38.402;-96.176;2022-08-19T00:38:23;97373.24;;;22.23;25.20
69689;BME280;56932;38.402;-96.176;2022-08-19T00:40:49;97372.95;;;22.62;24.85
69689;BME280;56932;38.402;-96.176;2022-08-19T00:43:19;97370.58;;;22.26;25.35
69689;BME280;56932;38.402;-96.176;2022-08-19T00:45:40;97370.59;;;23.32;24.11
69689;BME280;56932;38.402;-96.176;2022-08-19T00:48:05;97377.18;;;21.86;25.47
69689;BME280;56932;38.402;-96.176;2022-08-19T00:50:31;97373.74;;;22.39;24.87
69689;BME280;56932;38.402;-96.176;2022-08-19T00:52:56;97372.60;;;22.65;24.92
69689;BME280;56932;38.402;-96.176;2022-08-19T00:55:25;97367.03;;;22.06;25.22
69689;BME280;56932;38.402;-96.176;2022-08-19T00:57:51;97366.85;;;22.63;24.68
69689;BME280;56932;38.402;-96.176;2022-08-19T01:00:16;97371.64;;;22.34;24.89
69689;BME280;56932;38.402;-96.176;2022-08-19T01:02:39;97375.88;;;22.65;24.54
69689;BME280;56932;38.402;-96.176;2022-08-19T01:05:08;97377.93;;;22.56;24.62
69689;BME280;56932;38.402;-96.176;2022-08-19T01:07:29;97383.11;;;22.80;24.33
69689;BME280;56932;38.402;-96.176;2022-08-19T01:09:54;97390.67;;;23.53;23.70
69689;BME280;56932;38.402;-96.176;2022-08-19T01:12:20;97392.88;;;22.72;24.33
69689;BME280;56932;38.402;-96.176;2022-08-19T01:14:45;97397.01;;;22.55;24.40
69689;BME280;56932;38.402;-96.176;2022-08-19T01:17:11;97396.41;;;21.62;25.19
69689;BME280;56932;38.402;-96.176;2022-08-19T01:19:39;97388.41;;;22.72;24.18
69689;BME280;56932;38.402;-96.176;2022-08-19T01:22:06;97388.26;;;23.57;23.32
69689;BME280;56932;38.402;-96.176;2022-08-19T01:24:27;97388.31;;;22.98;23.83
69689;BME280;56932;38.402;-96.176;2022-08-19T01:26:53;97380.83;;;22.21;24.39
69689;BME280;56932;38.402;-96.176;2022-08-19T01:29:18;97367.20;;;22.33;24.28
69689;BME280;56932;38.402;-96.176;2022-08-19T01:31:44;97359.91;;;22.42;24.03
69689;BME280;56932;38.402;-96.176;2022-08-19T01:34:09;97356.06;;;21.99;24.80
69689;BME280;56932;38.402;-96.176;2022-08-19T01:36:39;97358.21;;;22.02;24.49
69689;BME280;56932;38.402;-96.176;2022-08-19T01:39:01;97350.09;;;22.04;24.61
69689;BME280;56932;38.402;-96.176;2022-08-19T01:41:26;97338.15;;;22.53;23.91
69689;BME280;56932;38.402;-96.176;2022-08-19T01:43:52;97333.69;;;22.49;23.90
69689;BME280;56932;38.402;-96.176;2022-08-19T01:46:17;97332.48;;;22.32;24.22
69689;BME280;56932;38.402;-96.176;2022-08-19T01:48:43;97330.57;;;21.99;24.19
69689;BME280;56932;38.402;-96.176;2022-08-19T01:51:08;97336.43;;;22.98;23.94
69689;BME280;56932;38.402;-96.176;2022-08-19T01:53:33;97337.02;;;21.01;25.43
69689;BME280;56932;38.402;-96.176;2022-08-19T01:55:58;97337.47;;;21.07;25.55
69689;BME280;56932;38.402;-96.176;2022-08-19T01:58:27;97338.91;;;22.10;24.66
69689;BME280;56932;38.402;-96.176;2022-08-19T02:00:49;97340.03;;;22.49;23.73
69689;BME280;56932;38.402;-96.176;2022-08-19T02:03:15;97343.91;;;23.15;23.36
69689;BME280;56932;38.402;-96.176;2022-08-19T02:05:41;97352.98;;;20.93;25.96
69689;BME280;56932;38.402;-96.176;2022-08-19T02:08:06;97351.46;;;22.02;24.76
69689;BME280;56932;38.402;-96.176;2022-08-19T02:10:31;97346.43;;;23.20;23.64
69689;BME280;56932;38.402;-96.176;2022-08-19T02:12:56;97356.48;;;21.34;25.65
69689;BME280;56932;38.402;-96.176;2022-08-19T02:15:22;97360.27;;;21.24;25.99
69689;BME280;56932;38.402;-96.176;2022-08-19T02:17:48;97359.68;;;22.18;24.80
69689;BME280;56932;38.402;-96.176;2022-08-19T02:20:14;97359.40;;;21.56;25.69
69689;BME280;56932;38.402;-96.176;2022-08-19T02:22:39;97360.73;;;20.99;26.45
69689;BME280;56932;38.402;-96.176;2022-08-19T02:25:04;97358.04;;;21.30;26.49
69689;BME280;56932;38.402;-96.176;2022-08-19T02:27:29;97345.69;;;21.32;26.86
69689;BME280;56932;38.402;-96.176;2022-08-19T02:29:55;97341.96;;;21.93;26.69
69689;BME280;56932;38.402;-96.176;2022-08-19T02:32:20;97347.78;;;21.46;27.47
69689;BME280;56932;38.402;-96.176;2022-08-19T02:34:46;97335.71;;;22.04;27.51
69689;BME280;56932;38.402;-96.176;2022-08-19T02:37:11;97329.97;;;22.21;27.45
69689;BME280;56932;38.402;-96.176;2022-08-19T02:39:37;97335.69;;;22.14;27.49
69689;BME280;56932;38.402;-96.176;2022-08-19T02:42:02;97346.82;;;22.29;27.86
69689;BME280;56932;38.402;-96.176;2022-08-19T02:44:29;97354.60;;;22.71;27.47
69689;BME280;56932;38.402;-96.176;2022-08-19T02:46:53;97348.65;;;22.22;27.87
69689;BME280;56932;38.402;-96.176;2022-08-19T02:49:19;97350.19;;;22.13;28.72
69689;BME280;56932;38.402;-96.176;2022-08-19T02:51:46;97357.61;;;22.10;28.41
69689;BME280;56932;38.402;-96.176;2022-08-19T02:54:11;97366.85;;;22.08;29.16
69689;BME280;56932;38.402;-96.176;2022-08-19T02:56:35;97373.89;;;22.66;28.77
69689;BME280;56932;38.402;-96.176;2022-08-19T02:59:01;97378.13;;;22.45;29.12
69689;BME280;56932;38.402;-96.176;2022-08-19T03:01:29;97375.53;;;22.87;28.62
69689;BME280;56932;38.402;-96.176;2022-08-19T03:03:52;97377.44;;;22.83;28.84
69689;BME280;56932;38.402;-96.176;2022-08-19T03:06:17;97378.25;;;22.90;28.94
69689;BME280;56932;38.402;-96.176;2022-08-19T03:08:44;97376.06;;;22.50;29.52
69689;BME280;56932;38.402;-96.176;2022-08-19T03:11:13;97372.30;;;22.48;29.93
69689;BME280;56932;38.402;-96.176;2022-08-19T03:13:33;97374.85;;;23.30;28.89
69689;BME280;56932;38.402;-96.176;2022-08-19T03:15:58;97376.01;;;22.90;29.46
69689;BME280;56932;38.402;-96.176;2022-08-19T03:18:24;97379.04;;;22.74;29.47
69689;BME280;56932;38.402;-96.176;2022-08-19T03:20:51;97379.45;;;22.34;30.06
69689;BME280;56932;38.402;-96.176;2022-08-19T03:23:16;97380.20;;;22.66;30.42
69689;BME280;56932;38.402;-96.176;2022-08-19T03:25:45;97384.79;;;22.80;30.32
69689;BME280;56932;38.402;-96.176;2022-08-19T03:28:06;97396.89;;;22.59;30.12
69689;BME280;56932;38.402;-96.176;2022-08-19T03:30:31;97408.76;;;22.50;30.67
69689;BME280;56932;38.402;-96.176;2022-08-19T03:32:57;97423.40;;;22.67;30.84
69689;BME280;56932;38.402;-96.176;2022-08-19T03:35:22;97427.04;;;22.69;30.35
69689;BME280;56932;38.402;-96.176;2022-08-19T03:37:48;97433.11;;;22.60;30.56
69689;BME280;56932;38.402;-96.176;2022-08-19T03:40:13;97438.55;;;22.73;30.51
69689;BME280;56932;38.402;-96.176;2022-08-19T03:42:39;97441.97;;;22.57;31.39
69689;BME280;56932;38.402;-96.176;2022-08-19T03:45:05;97446.49;;;22.75;31.00
69689;BME280;56932;38.402;-96.176;2022-08-19T03:47:29;97448.21;;;22.69;31.15
69689;BME280;56932;38.402;-96.176;2022-08-19T03:49:55;97448.71;;;22.77;30.83
69689;BME280;56932;38.402;-96.176;2022-08-19T03:52:20;97449.13;;;23.09;30.60
69689;BME280;56932;38.402;-96.176;2022-08-19T03:54:46;97454.82;;;22.89;30.86
69689;BME280;56932;38.402;-96.176;2022-08-19T03:57:11;97467.00;;;22.97;31.17
69689;BME280;56932;38.402;-96.176;2022-08-19T03:59:38;97475.32;;;22.53;31.78
69689;BME280;56932;38.402;-96.176;2022-08-19T04:02:07;97474.76;;;23.06;31.27
69689;BME280;56932;38.402;-96.176;2022-08-19T04:04:28;97477.29;;;22.93;31.20
69689;BME280;56932;38.402;-96.176;2022-08-19T04:06:53;97481.03;;;23.28;30.88
69689;BME280;56932;38.402;-96.176;2022-08-19T04:09:19;97476.80;;;23.51;30.73
69689;BME280;56932;38.402;-96.176;2022-08-19T04:11:48;97462.44;;;23.41;30.89
69689;BME280;56932;38.402;-96.176;2022-08-19T04:14:13;97460.17;;;22.58;31.87
69689;BME280;56932;38.402;-96.176;2022-08-19T04:16:35;97465.08;;;23.11;31.36
69689;BME280;56932;38.402;-96.176;2022-08-19T04:19:03;97471.44;;;22.52;32.14
69689;BME280;56932;38.402;-96.176;2022-08-19T04:21:27;97465.18;;;22.84;31.81
69689;BME280;56932;38.402;-96.176;2022-08-19T04:23:52;97461.02;;;22.91;31.85
69689;BME280;56932;38.402;-96.176;2022-08-19T04:26:20;97456.49;;;22.92;31.89
69689;BME280;56932;38.402;-96.176;2022-08-19T04:28:43;97461.07;;;22.74;31.89
69689;BME280;56932;38.402;-96.176;2022-08-19T04:31:13;97461.96;;;22.95;32.00
69689;BME280;56932;38.402;-96.176;2022-08-19T04:33:34;97461.24;;;22.74;32.35
69689;BME280;56932;38.402;-96.176;2022-08-19T04:35:59;97457.88;;;23.12;31.96
69689;BME280;56932;38.402;-96.176;2022-08-19T04:38:24;97458.49;;;22.89;32.26
69689;BME280;56932;38.402;-96.176;2022-08-19T04:40:51;97465.57;;;23.70;31.36
69689;BME280;56932;38.402;-96.176;2022-08-19T04:43:15;97462.53;;;22.78;32.50
69689;BME280;56932;38.402;-96.176;2022-08-19T04:45:41;97456.71;;;23.05;32.26
69689;BME280;56932;38.402;-96.176;2022-08-19T04:48:06;97449.79;;;22.97;32.41
69689;BME280;56932;38.402;-96.176;2022-08-19T04:50:32;97449.59;;;23.17;32.18
69689;BME280;56932;38.402;-96.176;2022-08-19T04:52:57;97453.06;;;23.80;31.24
69689;BME280;56932;38.402;-96.176;2022-08-19T04:55:23;97448.70;;;23.23;32.15
69689;BME280;56932;38.402;-96.176;2022-08-19T04:57:48;97454.69;;;23.58;31.29
69689;BME280;56932;38.402;-96.176;2022-08-19T05:00:14;97447.44;;;23.18;32.06
69689;BME280;56932;38.402;-96.176;2022-08-19T05:02:39;97445.75;;;23.29;31.67
69689;BME280;56932;38.402;-96.176;2022-08-19T05:05:05;97440.48;;;23.42;32.17
69689;BME280;56932;38.402;-96.176;2022-08-19T05:07:30;97439.83;;;23.22;32.17
69689;BME280;56932;38.402;-96.176;2022-08-19T05:09:56;97440.86;;;23.23;32.49
69689;BME280;56932;38.402;-96.176;2022-08-19T05:12:21;97437.56;;;23.02;32.83
69689;BME280;56932;38.402;-96.176;2022-08-19T05:14:46;97434.25;;;23.26;32.29
69689;BME280;56932;38.402;-96.176;2022-08-19T05:17:12;97436.28;;;23.44;32.35
69689;BME280;56932;38.402;-96.176;2022-08-19T05:19:37;97432.89;;;23.68;32.12
69689;BME280;56932;38.402;-96.176;2022-08-19T05:22:03;97430.79;;;23.49;32.14
69689;BME280;56932;38.402;-96.176;2022-08-19T05:24:29;97429.74;;;23.68;32.02
69689;BME280;56932;38.402;-96.176;2022-08-19T05:26:55;97426.55;;;23.49;32.30
69689;BME280;56932;38.402;-96.176;2022-08-19T05:29:21;97423.92;;;23.27;32.61
69689;BME280;56932;38.402;-96.176;2022-08-19T05:31:46;97422.31;;;23.46;32.47
69689;BME280;56932;38.402;-96.176;2022-08-19T05:34:11;97419.80;;;23.63;32.28
69689;BME280;56932;38.402;-96.176;2022-08-19T05:36:40;97418.27;;;23.74;32.51
69689;BME280;56932;38.402;-96.176;2022-08-19T05:39:02;97415.71;;;22.92;33.31
69689;BME280;56932;38.402;-96.176;2022-08-19T05:41:26;97419.72;;;23.69;32.72
69689;BME280;56932;38.402;-96.176;2022-08-19T05:43:52;97420.60;;;23.46;32.96
69689;BME280;56932;38.402;-96.176;2022-08-19T05:46:19;97425.67;;;23.34;33.22
69689;BME280;56932;38.402;-96.176;2022-08-19T05:48:43;97425.60;;;23.34;33.21
69689;BME280;56932;38.402;-96.176;2022-08-19T05:51:08;97426.44;;;23.32;33.08
69689;BME280;56932;38.402;-96.176;2022-08-19T05:53:34;97429.52;;;23.82;32.74
69689;BME280;56932;38.402;-96.176;2022-08-19T05:56:04;97434.78;;;23.18;33.33
69689;BME280;56932;38.402;-96.176;2022-08-19T05:58:24;97435.17;;;23.72;32.76
69689;BME280;56932;38.402;-96.176;2022-08-19T06:00:50;97439.18;;;23.76;33.02
69689;BME280;56932;38.402;-96.176;2022-08-19T06:03:15;97443.13;;;23.66;32.92
69689;BME280;56932;38.402;-96.176;2022-08-19T06:05:42;97447.32;;;23.34;33.33
69689;BME280;56932;38.402;-96.176;2022-08-19T06:08:06;97444.33;;;23.41;33.23
69689;BME280;56932;38.402;-96.176;2022-08-19T06:10:32;97439.29;;;24.05;32.82
69689;BME280;56932;38.402;-96.176;2022-08-19T06:12:57;97435.11;;;24.05;32.80
69689;BME280;56932;38.402;-96.176;2022-08-19T06:15:23;97431.90;;;23.83;33.18
69689;BME280;56932;38.402;-96.176;2022-08-19T06:17:48;97433.13;;;23.08;33.86
69689;BME280;56932;38.402;-96.176;2022-08-19T06:20:15;97431.08;;;23.41;33.73
69689;BME280;56932;38.402;-96.176;2022-08-19T06:22:40;97432.96;;;23.24;34.05
69689;BME280;56932;38.402;-96.176;2022-08-19T06:25:05;97430.60;;;23.12;34.24
69689;BME280;56932;38.402;-96.176;2022-08-19T06:27:30;97429.91;;;23.87;33.28
69689;BME280;56932;38.402;-96.176;2022-08-19T06:29:55;97422.40;;;23.35;33.71
69689;BME280;56932;38.402;-96.176;2022-08-19T06:32:21;97420.56;;;23.66;33.35
69689;BME280;56932;38.402;-96.176;2022-08-19T06:34:46;97419.20;;;23.44;33.28
69689;BME280;56932;38.402;-96.176;2022-08-19T06:37:12;97421.70;;;23.71;33.32
69689;BME280;56932;38.402;-96.176;2022-08-19T06:39:39;97418.99;;;23.60;33.77
69689;BME280;56932;38.402;-96.176;2022-08-19T06:42:04;97420.07;;;23.95;33.36
69689;BME280;56932;38.402;-96.176;2022-08-19T06:44:30;97418.41;;;23.53;33.92
69689;BME280;56932;38.402;-96.176;2022-08-19T06:46:54;97419.68;;;23.86;33.29
69689;BME280;56932;38.402;-96.176;2022-08-19T06:49:19;97412.70;;;23.30;33.94
69689;BME280;56932;38.402;-96.176;2022-08-19T06:51:47;97412.98;;;23.56;33.38
69689;BME280;56932;38.402;-96.176;2022-08-19T06:54:11;97413.93;;;23.34;34.27
69689;BME280;56932;38.402;-96.176;2022-08-19T06:56:36;97414.82;;;23.37;34.26
69689;BME280;56932;38.402;-96.176;2022-08-19T06:59:02;97414.02;;;23.24;34.45
69689;BME280;56932;38.402;-96.176;2022-08-19T07:01:27;97416.94;;;23.86;33.73
69689;BME280;56932;38.402;-96.176;2022-08-19T07:03:52;97418.15;;;23.67;33.99
69689;BME280;56932;38.402;-96.176;2022-08-19T07:06:19;97421.70;;;23.46;34.30
69689;BME280;56932;38.402;-96.176;2022-08-19T07:08:44;97424.05;;;23.65;33.43
69689;BME280;56932;38.402;-96.176;2022-08-19T07:11:11;97420.04;;;24.10;33.21
69689;BME280;56932;38.402;-96.176;2022-08-19T07:13:34;97420.19;;;23.73;33.33
69689;BME280;56932;38.402;-96.176;2022-08-19T07:16:03;97417.52;;;23.68;33.80
69689;BME280;56932;38.402;-96.176;2022-08-19T07:18:25;97416.58;;;23.88;33.93
69689;BME280;56932;38.402;-96.176;2022-08-19T07:20:50;97418.04;;;23.80;33.96
69689;BME280;56932;38.402;-96.176;2022-08-19T07:23:16;97417.27;;;23.88;33.94
69689;BME280;56932;38.402;-96.176;2022-08-19T07:25:42;97417.24;;;23.57;34.08
69689;BME280;56932;38.402;-96.176;2022-08-19T07:28:07;97417.48;;;23.30;34.12
69689;BME280;56932;38.402;-96.176;2022-08-19T07:30:32;97416.92;;;23.70;33.96
69689;BME280;56932;38.402;-96.176;2022-08-19T07:32:58;97411.33;;;23.29;34.19
69689;BME280;56932;38.402;-96.176;2022-08-19T07:35:23;97407.62;;;24.75;33.05
69689;BME280;56932;38.402;-96.176;2022-08-19T07:37:49;97404.63;;;23.77;33.99
69689;BME280;56932;38.402;-96.176;2022-08-19T07:40:14;97406.88;;;23.67;34.13
69689;BME280;56932;38.402;-96.176;2022-08-19T07:42:40;97402.04;;;23.76;34.08
69689;BME280;56932;38.402;-96.176;2022-08-19T07:45:06;97402.09;;;23.87;33.93
69689;BME280;56932;38.402;-96.176;2022-08-19T07:47:30;97401.22;;;23.79;34.34
69689;BME280;56932;38.402;-96.176;2022-08-19T07:49:56;97400.60;;;24.01;33.51
69689;BME280;56932;38.402;-96.176;2022-08-19T07:52:22;97400.82;;;23.92;33.88
69689;BME280;56932;38.402;-96.176;2022-08-19T07:54:47;97400.52;;;23.91;33.93
69689;BME280;56932;38.402;-96.176;2022-08-19T07:57:12;97397.22;;;23.47;34.85
69689;BME280;56932;38.402;-96.176;2022-08-19T07:59:38;97394.98;;;23.83;34.39
69689;BME280;56932;38.402;-96.176;2022-08-19T08:02:04;97394.08;;;23.99;33.86
69689;BME280;56932;38.402;-96.176;2022-08-19T08:04:30;97395.51;;;23.93;33.62
69689;BME280;56932;38.402;-96.176;2022-08-19T08:06:54;97391.08;;;23.99;34.20
69689;BME280;56932;38.402;-96.176;2022-08-19T08:09:22;97386.08;;;24.15;33.72
69689;BME280;56932;38.402;-96.176;2022-08-19T08:11:48;97385.99;;;23.58;34.03
69689;BME280;56932;38.402;-96.176;2022-08-19T08:14:11;97386.68;;;23.61;34.43
69689;BME280;56932;38.402;-96.176;2022-08-19T08:16:37;97383.47;;;23.65;34.34
69689;BME280;56932;38.402;-96.176;2022-08-19T08:19:03;97386.76;;;23.58;34.48
69689;BME280;56932;38.402;-96.176;2022-08-19T08:21:27;97386.15;;;23.68;34.65
69689;BME280;56932;38.402;-96.176;2022-08-19T08:23:52;97379.49;;;23.60;34.50
69689;BME280;56932;38.402;-96.176;2022-08-19T08:26:18;97379.63;;;23.71;34.68
69689;BME280;56932;38.402;-96.176;2022-08-19T08:28:43;97377.22;;;23.65;33.52
69689;BME280;56932;38.402;-96.176;2022-08-19T08:31:09;97371.76;;;24.33;33.25
69689;BME280;56932;38.402;-96.176;2022-08-19T08:33:34;97374.17;;;23.70;34.68
69689;BME280;56932;38.402;-96.176;2022-08-19T08:36:00;97379.84;;;23.36;35.13
69689;BME280;56932;38.402;-96.176;2022-08-19T08:38:25;97380.84;;;23.95;34.15
69689;BME280;56932;38.402;-96.176;2022-08-19T08:40:53;97379.85;;;23.46;34.45
69689;BME280;56932;38.402;-96.176;2022-08-19T08:43:24;97372.57;;;23.52;34.35
69689;BME280;56932;38.402;-96.176;2022-08-19T08:45:46;97365.40;;;23.07;34.97
69689;BME280;56932;38.402;-96.176;2022-08-19T08:48:15;97352.86;;;23.32;34.96
69689;BME280;56932;38.402;-96.176;2022-08-19T08:50:39;97347.89;;;23.17;35.16
69689;BME280;56932;38.402;-96.176;2022-08-19T08:52:58;97351.10;;;23.67;34.84
69689;BME280;56932;38.402;-96.176;2022-08-19T08:55:26;97353.32;;;23.83;34.36
69689;BME280;56932;38.402;-96.176;2022-08-19T08:57:54;97354.60;;;24.05;34.03
69689;BME280;56932;38.402;-96.176;2022-08-19T09:00:18;97360.86;;;24.14;33.98
69689;BME280;56932;38.402;-96.176;2022-08-19T09:02:40;97362.97;;;23.62;34.90
69689;BME280;56932;38.402;-96.176;2022-08-19T09:05:06;97361.86;;;23.93;34.57
69689;BME280;56932;38.402;-96.176;2022-08-19T09:07:39;97358.35;;;23.82;34.70
69689;BME280;56932;38.402;-96.176;2022-08-19T09:10:03;97361.92;;;23.42;34.90
69689;BME280;56932;38.402;-96.176;2022-08-19T09:12:27;97363.95;;;23.45;35.16
69689;BME280;56932;38.402;-96.176;2022-08-19T09:14:49;97364.50;;;23.55;35.06
69689;BME280;56932;38.402;-96.176;2022-08-19T09:17:14;97362.72;;;22.97;35.52
69689;BME280;56932;38.402;-96.176;2022-08-19T09:22:03;97363.00;;;23.94;34.31
69689;BME280;56932;38.402;-96.176;2022-08-19T09:24:29;97363.70;;;23.98;34.24
69689;BME280;56932;38.402;-96.176;2022-08-19T09:26:54;97361.11;;;23.94;34.33
69689;BME280;56932;38.402;-96.176;2022-08-19T09:29:20;97361.46;;;23.91;34.37
69689;BME280;56932;38.402;-96.176;2022-08-19T09:31:45;97363.54;;;23.39;35.05
69689;BME280;56932;38.402;-96.176;2022-08-19T09:34:10;97367.76;;;23.60;34.46
69689;BME280;56932;38.402;-96.176;2022-08-19T09:36:36;97373.37;;;23.68;34.38
69689;BME280;56932;38.402;-96.176;2022-08-19T09:39:03;97371.90;;;23.75;34.92
69689;BME280;56932;38.402;-96.176;2022-08-19T09:41:27;97371.03;;;23.69;35.05
69689;BME280;56932;38.402;-96.176;2022-08-19T09:43:54;97367.00;;;23.97;34.40
69689;BME280;56932;38.402;-96.176;2022-08-19T09:46:19;97360.60;;;23.47;35.04
69689;BME280;56932;38.402;-96.176;2022-08-19T09:48:43;97365.41;;;23.66;34.43
69689;BME280;56932;38.402;-96.176;2022-08-19T09:51:10;97369.00;;;23.56;34.96
69689;BME280;56932;38.402;-96.176;2022-08-19T09:53:34;97372.07;;;23.78;34.93
69689;BME280;56932;38.402;-96.176;2022-08-19T09:56:00;97378.96;;;23.73;34.39
69689;BME280;56932;38.402;-96.176;2022-08-19T09:58:25;97380.52;;;23.35;34.90
69689;BME280;56932;38.402;-96.176;2022-08-19T10:00:51;97377.58;;;23.46;35.48
69689;BME280;56932;38.402;-96.176;2022-08-19T10:03:16;97373.46;;;23.46;35.47
69689;BME280;56932;38.402;-96.176;2022-08-19T10:05:43;97372.29;;;23.22;35.49
69689;BME280;56932;38.402;-96.176;2022-08-19T10:08:07;97371.03;;;23.71;35.17
69689;BME280;56932;38.402;-96.176;2022-08-19T10:10:36;97372.70;;;23.59;35.03
69689;BME280;56932;38.402;-96.176;2022-08-19T10:12:58;97374.65;;;23.69;34.91
69689;BME280;56932;38.402;-96.176;2022-08-19T10:15:24;97377.31;;;23.68;35.21
69689;BME280;56932;38.402;-96.176;2022-08-19T10:17:49;97382.50;;;23.87;34.40
69689;BME280;56932;38.402;-96.176;2022-08-19T10:20:14;97382.36;;;24.74;33.00
69689;BME280;56932;38.402;-96.176;2022-08-19T10:22:40;97383.62;;;24.17;34.58
69689;BME280;56932;38.402;-96.176;2022-08-19T10:25:07;97380.08;;;24.17;34.28
69689;BME280;56932;38.402;-96.176;2022-08-19T10:27:30;97372.65;;;23.82;34.42
69689;BME280;56932;38.402;-96.176;2022-08-19T10:29:56;97367.39;;;24.18;33.99
69689;BME280;56932;38.402;-96.176;2022-08-19T10:32:21;97363.80;;;24.12;34.02
69689;BME280;56932;38.402;-96.176;2022-08-19T10:34:47;97360.90;;;23.64;34.67
69689;BME280;56932;38.402;-96.176;2022-08-19T10:37:12;97360.59;;;24.60;33.46
69689;BME280;56932;38.402;-96.176;2022-08-19T10:39:37;97367.97;;;24.13;34.03
69689;BME280;56932;38.402;-96.176;2022-08-19T10:42:05;97370.76;;;24.31;33.87
69689;BME280;56932;38.402;-96.176;2022-08-19T10:44:28;97366.54;;;23.52;35.24
69689;BME280;56932;38.402;-96.176;2022-08-19T10:46:54;97371.02;;;23.78;35.22
69689;BME280;56932;38.402;-96.176;2022-08-19T10:49:19;97374.88;;;24.03;34.59
69689;BME280;56932;38.402;-96.176;2022-08-19T10:51:44;97377.00;;;23.46;35.07
69689;BME280;56932;38.402;-96.176;2022-08-19T10:54:10;97379.25;;;23.79;34.70
69689;BME280;56932;38.402;-96.176;2022-08-19T10:56:35;97377.90;;;23.50;34.99
69689;BME280;56932;38.402;-96.176;2022-08-19T10:59:01;97376.98;;;23.99;34.76
69689;BME280;56932;38.402;-96.176;2022-08-19T11:01:26;97376.34;;;23.65;35.21
69689;BME280;56932;38.402;-96.176;2022-08-19T11:03:52;97377.89;;;23.71;34.78
69689;BME280;56932;38.402;-96.176;2022-08-19T11:06:17;97372.64;;;23.97;34.45
69689;BME280;56932;38.402;-96.176;2022-08-19T11:08:43;97370.30;;;23.35;35.29
69689;BME280;56932;38.402;-96.176;2022-08-19T11:11:08;97368.46;;;24.70;33.59
69689;BME280;56932;38.402;-96.176;2022-08-19T11:13:35;97367.47;;;24.30;34.05
69689;BME280;56932;38.402;-96.176;2022-08-19T11:16:01;97359.85;;;23.88;34.63
69689;BME280;56932;38.402;-96.176;2022-08-19T11:18:25;97358.76;;;23.86;34.61
69689;BME280;56932;38.402;-96.176;2022-08-19T11:20:50;97359.01;;;23.73;34.25
69689;BME280;56932;38.402;-96.176;2022-08-19T11:23:15;97359.97;;;23.91;34.62
69689;BME280;56932;38.402;-96.176;2022-08-19T11:25:41;97365.40;;;23.88;34.72
69689;BME280;56932;38.402;-96.176;2022-08-19T11:28:06;97371.32;;;23.94;34.97
69689;BME280;56932;38.402;-96.176;2022-08-19T11:30:40;97370.97;;;23.58;35.10
69689;BME280;56932;38.402;-96.176;2022-08-19T11:32:57;97368.41;;;23.83;34.78
69689;BME280;56932;38.402;-96.176;2022-08-19T11:35:23;97369.22;;;23.98;35.20
69689;BME280;56932;38.402;-96.176;2022-08-19T11:37:48;97368.94;;;23.61;35.43
69689;BME280;56932;38.402;-96.176;2022-08-19T11:40:14;97365.02;;;24.18;34.67
69689;BME280;56932;38.402;-96.176;2022-08-19T11:42:39;97358.93;;;24.29;34.80
69689;BME280;56932;38.402;-96.176;2022-08-19T11:45:05;97356.60;;;23.70;35.02
69689;BME280;56932;38.402;-96.176;2022-08-19T11:47:30;97355.76;;;23.97;35.17
69689;BME280;56932;38.402;-96.176;2022-08-19T11:49:56;97355.25;;;23.23;35.59
69689;BME280;56932;38.402;-96.176;2022-08-19T11:52:21;97356.85;;;24.19;34.35
69689;BME280;56932;38.402;-96.176;2022-08-19T11:54:47;97357.49;;;24.38;34.10
69689;BME280;56932;38.402;-96.176;2022-08-19T11:57:12;97354.55;;;23.91;34.65
69689;BME280;56932;38.402;-96.176;2022-08-19T11:59:38;97353.74;;;24.40;34.08
69689;BME280;56932;38.402;-96.176;2022-08-19T12:02:03;97355.05;;;24.85;33.16
69689;BME280;56932;38.402;-96.176;2022-08-19T12:04:28;97356.41;;;24.16;33.98
69689;BME280;56932;38.402;-96.176;2022-08-19T12:06:54;97358.41;;;23.88;34.63
69689;BME280;56932;38.402;-96.176;2022-08-19T12:09:19;97360.19;;;23.60;35.00
69689;BME280;56932;38.402;-96.176;2022-08-19T12:11:45;97354.88;;;23.91;34.60
69689;BME280;56932;38.402;-96.176;2022-08-19T12:14:12;97354.64;;;24.19;34.24
69689;BME280;56932;38.402;-96.176;2022-08-19T12:16:36;97356.78;;;24.11;34.32
69689;BME280;56932;38.402;-96.176;2022-08-19T12:19:03;97358.70;;;23.77;34.82
69689;BME280;56932;38.402;-96.176;2022-08-19T12:21:28;97350.16;;;24.55;33.80
69689;BME280;56932;38.402;-96.176;2022-08-19T12:23:52;97349.90;;;23.90;34.35
69689;BME280;56932;38.402;-96.176;2022-08-19T12:26:18;97355.90;;;24.29;34.15
69689;BME280;56932;38.402;-96.176;2022-08-19T12:28:43;97355.26;;;23.93;33.97
69689;BME280;56932;38.402;-96.176;2022-08-19T12:31:09;97356.77;;;24.37;34.32
69689;BME280;56932;38.402;-96.176;2022-08-19T12:33:34;97360.07;;;24.50;33.47